Huvudsida
METAR-TAF:

METAR-TAF

Flygplatser :

Visby Airport

Visby, Gotland, Sverige

latitud: 57-40N, longitud: 018-21E, höjd: 51 m

Aktuellt väderrapport

Denna rapport gjordes för 16 minuter sedan, klockan 17:20 UTC
Vind 18 kt från väst/sydväst
Temperatur 12°C
Fuktighet 71%
Tryck 1002 hPa
Sikt 10 km eller mer
Få moln på en höjd av 2600 ft

METAR: ESSV 221720Z 24018KT 9999 FEW026 12/07 Q1002

Tid: 19:36 (17:36 UTC)

Väderprognos

Denna rapport gjordes för 3 timmar och 6 minuter sedan, klockan 14:30 UTC
Prognos gäller från 22 kl. 15 UTC till 22 kl. 19 UTC
Vind 25 kt från väst/sydväst i byarna ända upp till 35 kt
Sikt 10 km eller mer
Inga moln under 1 500 m eller inga cumulonimbus

TAF: ESSV 221430Z 2215/2219 24025G35KT CAVOK

Aktuella väderrapporter och prognoser från 4000 flygplatser (METAR- och TAF-rapporter).

De tillgängliga stationerna syns som gula och röda prickar på kartan.

För musen över prickarna för att se namnen på stationerna.

Klicka sedan för att få väderrapporter och prognoser.

För att ändra kartan: Klicka på de gröna knapparna med ett svart kors på för att zooma in; den gröna knappen med ett streck på för att zooma ut; eller på de gröna pilarna för angränsande kartor.


METAR-TAF: